CFG5ER EDDP-EDDH
Flight info
| Callsign | CFG5ER |
|---|---|
| Flight time | 0h 33m |
| Altitude | 32000 |
| Route | PENEM1S/26L PENEM Y233 ODLUN Z207 MAG M736 SOGMA M748 ERNUD M726 BKD L619 BUMIL M748 RARUP RARUP3P |
| Aircraft | A321/M-SDE3FGHIRWY/LB1 |
Departure
| Time | 2026-04-22 17:26 |
|---|---|
| Airport | Leipzig/Halle Airport (EDDP) |
Arrival
| Time | 2026-04-22 18:00 |
|---|---|
| Airport | Hamburg Helmut Schmidt Airport (EDDH) |
| Time | Latitude | Longitude | Altitude | Speed | Heading |
|---|---|---|---|---|---|
| 2026-04-22 16:58 | 51.42021 | 12.21207 | 431 ft | 0 kts | 15° |
| 2026-04-22 17:17 | 51.42022 | 12.21207 | 431 ft | 1 kts | 15° |
| 2026-04-22 17:17 | 51.42048 | 12.21220 | 431 ft | 5 kts | 16° |
| 2026-04-22 17:18 | 51.42091 | 12.21225 | 431 ft | 9 kts | 345° |
| 2026-04-22 17:18 | 51.42140 | 12.21095 | 420 ft | 16 kts | 287° |
| 2026-04-22 17:18 | 51.42216 | 12.20998 | 428 ft | 17 kts | 3° |
| 2026-04-22 17:18 | 51.42330 | 12.21045 | 438 ft | 15 kts | 16° |
| 2026-04-22 17:19 | 51.42545 | 12.21138 | 442 ft | 19 kts | 15° |
| 2026-04-22 17:19 | 51.42796 | 12.21315 | 429 ft | 19 kts | 77° |
| 2026-04-22 17:20 | 51.42820 | 12.21726 | 432 ft | 18 kts | 85° |
| 2026-04-22 17:20 | 51.42839 | 12.22108 | 435 ft | 24 kts | 86° |
| 2026-04-22 17:21 | 51.42853 | 12.22429 | 437 ft | 30 kts | 85° |
| 2026-04-22 17:21 | 51.42886 | 12.23126 | 439 ft | 32 kts | 85° |
| 2026-04-22 17:22 | 51.42918 | 12.23814 | 438 ft | 31 kts | 85° |
| 2026-04-22 17:22 | 51.42934 | 12.24149 | 445 ft | 29 kts | 85° |
| 2026-04-22 17:22 | 51.42966 | 12.24796 | 448 ft | 28 kts | 85° |
| 2026-04-22 17:23 | 51.42979 | 12.25096 | 450 ft | 29 kts | 86° |
| 2026-04-22 17:23 | 51.43013 | 12.25828 | 453 ft | 33 kts | 85° |
| 2026-04-22 17:23 | 51.43030 | 12.26201 | 452 ft | 33 kts | 86° |
| 2026-04-22 17:24 | 51.43046 | 12.26551 | 453 ft | 29 kts | 85° |
| 2026-04-22 17:24 | 51.43115 | 12.26744 | 457 ft | 16 kts | 352° |
| 2026-04-22 17:24 | 51.43217 | 12.26730 | 456 ft | 14 kts | 355° |
| 2026-04-22 17:24 | 51.43319 | 12.26713 | 455 ft | 15 kts | 352° |
| 2026-04-22 17:25 | 51.43358 | 12.26590 | 453 ft | 14 kts | 265° |
| 2026-04-22 17:25 | 51.43347 | 12.26380 | 452 ft | 33 kts | 265° |
| 2026-04-22 17:25 | 51.43313 | 12.25631 | 454 ft | 98 kts | 266° |
| 2026-04-22 17:25 | 51.43250 | 12.24257 | 446 ft | 148 kts | 265° |
| 2026-04-22 17:26 | 51.43160 | 12.22542 | 528 ft | 176 kts | 266° |
| 2026-04-22 17:26 | 51.43074 | 12.20607 | 1051 ft | 173 kts | 279° |
| 2026-04-22 17:26 | 51.43612 | 12.18945 | 1620 ft | 171 kts | 319° |
| 2026-04-22 17:26 | 51.44590 | 12.17821 | 1951 ft | 180 kts | 326° |
| 2026-04-22 17:27 | 51.45671 | 12.16632 | 2108 ft | 196 kts | 326° |
| 2026-04-22 17:27 | 51.46849 | 12.15329 | 2219 ft | 216 kts | 326° |
| 2026-04-22 17:27 | 51.48110 | 12.13929 | 2707 ft | 225 kts | 326° |
| 2026-04-22 17:27 | 51.49396 | 12.12492 | 3426 ft | 226 kts | 326° |
| 2026-04-22 17:28 | 51.50689 | 12.11035 | 4097 ft | 228 kts | 326° |
| 2026-04-22 17:28 | 51.52000 | 12.09557 | 4771 ft | 232 kts | 327° |
| 2026-04-22 17:28 | 51.53452 | 12.08420 | 5364 ft | 235 kts | 348° |
| 2026-04-22 17:28 | 51.55139 | 12.08232 | 5697 ft | 252 kts | 1° |
| 2026-04-22 17:29 | 51.56918 | 12.08307 | 6292 ft | 258 kts | 1° |
| 2026-04-22 17:29 | 51.58733 | 12.08389 | 6858 ft | 263 kts | 1° |
| 2026-04-22 17:29 | 51.60558 | 12.08466 | 7287 ft | 262 kts | 1° |
| 2026-04-22 17:29 | 51.62389 | 12.08538 | 7781 ft | 265 kts | 2° |
| 2026-04-22 17:30 | 51.64240 | 12.08587 | 8466 ft | 267 kts | 358° |
| 2026-04-22 17:30 | 51.66064 | 12.07973 | 9116 ft | 271 kts | 344° |
| 2026-04-22 17:30 | 51.67866 | 12.07023 | 9802 ft | 273 kts | 340° |
| 2026-04-22 17:30 | 51.69624 | 12.05809 | 10433 ft | 277 kts | 338° |
| 2026-04-22 17:31 | 51.71429 | 12.04474 | 10657 ft | 295 kts | 337° |
| 2026-04-22 17:31 | 51.73351 | 12.03015 | 10794 ft | 316 kts | 336° |
| 2026-04-22 17:31 | 51.75400 | 12.01448 | 10912 ft | 335 kts | 336° |
| 2026-04-22 17:31 | 51.77524 | 11.99826 | 11165 ft | 347 kts | 336° |
| 2026-04-22 17:32 | 51.79724 | 11.98143 | 11706 ft | 352 kts | 336° |
| 2026-04-22 17:32 | 51.81918 | 11.96467 | 12290 ft | 355 kts | 336° |
| 2026-04-22 17:32 | 51.84161 | 11.94759 | 12892 ft | 358 kts | 337° |
| 2026-04-22 17:32 | 51.86429 | 11.93034 | 13488 ft | 361 kts | 337° |
| 2026-04-22 17:33 | 51.87966 | 11.91863 | 13886 ft | 363 kts | 337° |
| 2026-04-22 17:33 | 51.91007 | 11.89542 | 14584 ft | 367 kts | 337° |
| 2026-04-22 17:33 | 51.93336 | 11.87766 | 15068 ft | 371 kts | 337° |
| 2026-04-22 17:33 | 51.95684 | 11.85976 | 15547 ft | 374 kts | 337° |
| 2026-04-22 17:34 | 51.98048 | 11.84176 | 16021 ft | 377 kts | 337° |
| 2026-04-22 17:34 | 52.00433 | 11.82354 | 16492 ft | 380 kts | 337° |
| 2026-04-22 17:34 | 52.02836 | 11.80511 | 16940 ft | 383 kts | 337° |
| 2026-04-22 17:34 | 52.05258 | 11.78648 | 17405 ft | 386 kts | 337° |
| 2026-04-22 17:35 | 52.07693 | 11.76772 | 17855 ft | 389 kts | 337° |
| 2026-04-22 17:35 | 52.10152 | 11.74882 | 18298 ft | 392 kts | 337° |
| 2026-04-22 17:35 | 52.12633 | 11.72977 | 18713 ft | 396 kts | 337° |
| 2026-04-22 17:35 | 52.15101 | 11.71081 | 19091 ft | 398 kts | 337° |
| 2026-04-22 17:36 | 52.17617 | 11.69145 | 19471 ft | 401 kts | 337° |
| 2026-04-22 17:36 | 52.20151 | 11.67189 | 19827 ft | 404 kts | 337° |
| 2026-04-22 17:36 | 52.22698 | 11.65218 | 20193 ft | 407 kts | 337° |
| 2026-04-22 17:36 | 52.25271 | 11.63229 | 20560 ft | 410 kts | 337° |
| 2026-04-22 17:37 | 52.27857 | 11.61228 | 20929 ft | 413 kts | 337° |
| 2026-04-22 17:37 | 52.30457 | 11.59210 | 21293 ft | 416 kts | 337° |
| 2026-04-22 17:37 | 52.33086 | 11.57162 | 21657 ft | 419 kts | 337° |
| 2026-04-22 17:37 | 52.35723 | 11.55106 | 22026 ft | 421 kts | 337° |
| 2026-04-22 17:38 | 52.38380 | 11.53033 | 22382 ft | 424 kts | 337° |
| 2026-04-22 17:38 | 52.41053 | 11.50944 | 22719 ft | 427 kts | 337° |
| 2026-04-22 17:38 | 52.43746 | 11.48842 | 23064 ft | 430 kts | 337° |
| 2026-04-22 17:38 | 52.46459 | 11.46722 | 23400 ft | 433 kts | 337° |
| 2026-04-22 17:39 | 52.49191 | 11.44585 | 23733 ft | 436 kts | 337° |
| 2026-04-22 17:39 | 52.51896 | 11.42461 | 24030 ft | 439 kts | 337° |
| 2026-04-22 17:39 | 52.57426 | 11.38113 | 24304 ft | 441 kts | 337° |
| 2026-04-22 17:40 | 52.60197 | 11.35933 | 24309 ft | 441 kts | 337° |
| 2026-04-22 17:40 | 52.62960 | 11.33749 | 24309 ft | 441 kts | 337° |
| 2026-04-22 17:40 | 52.65725 | 11.31554 | 24309 ft | 441 kts | 337° |
| 2026-04-22 17:40 | 52.67773 | 11.29926 | 24309 ft | 441 kts | 337° |
| 2026-04-22 17:41 | 52.70319 | 11.27901 | 24309 ft | 441 kts | 337° |
| 2026-04-22 17:41 | 52.73057 | 11.25727 | 24299 ft | 441 kts | 337° |
| 2026-04-22 17:41 | 52.74235 | 11.24792 | 24307 ft | 441 kts | 337° |
| 2026-04-22 17:41 | 52.77002 | 11.22642 | 24310 ft | 442 kts | 337° |
| 2026-04-22 17:42 | 52.79760 | 11.20472 | 23999 ft | 437 kts | 337° |
| 2026-04-22 17:42 | 52.82496 | 11.18287 | 23310 ft | 434 kts | 336° |
| 2026-04-22 17:42 | 52.84287 | 11.16844 | 22952 ft | 430 kts | 336° |
| 2026-04-22 17:42 | 52.87847 | 11.13970 | 22235 ft | 421 kts | 336° |
| 2026-04-22 17:43 | 52.90428 | 11.11892 | 21733 ft | 415 kts | 336° |
| 2026-04-22 17:43 | 52.93007 | 11.09822 | 21233 ft | 408 kts | 336° |
| 2026-04-22 17:43 | 52.95547 | 11.07783 | 20742 ft | 402 kts | 336° |
| 2026-04-22 17:43 | 52.98046 | 11.05771 | 20290 ft | 396 kts | 336° |
| 2026-04-22 17:44 | 53.00500 | 11.03792 | 19852 ft | 389 kts | 336° |
| 2026-04-22 17:44 | 53.02921 | 11.01842 | 19423 ft | 383 kts | 336° |
| 2026-04-22 17:44 | 53.05299 | 10.99927 | 18998 ft | 377 kts | 336° |
| 2026-04-22 17:44 | 53.07644 | 10.98039 | 18585 ft | 372 kts | 336° |
| 2026-04-22 17:45 | 53.09957 | 10.96171 | 18143 ft | 366 kts | 336° |
| 2026-04-22 17:45 | 53.12228 | 10.94331 | 17746 ft | 361 kts | 336° |
| 2026-04-22 17:45 | 53.14481 | 10.92507 | 17347 ft | 359 kts | 336° |
| 2026-04-22 17:45 | 53.16719 | 10.90692 | 16942 ft | 357 kts | 336° |
| 2026-04-22 17:46 | 53.18939 | 10.88888 | 16530 ft | 354 kts | 336° |
| 2026-04-22 17:46 | 53.21145 | 10.87093 | 16131 ft | 352 kts | 336° |
| 2026-04-22 17:46 | 53.23337 | 10.85307 | 15714 ft | 349 kts | 336° |
| 2026-04-22 17:46 | 53.25513 | 10.83533 | 15288 ft | 347 kts | 336° |
| 2026-04-22 17:47 | 53.27670 | 10.81774 | 14868 ft | 344 kts | 336° |
| 2026-04-22 17:47 | 53.29822 | 10.80019 | 14439 ft | 342 kts | 336° |
| 2026-04-22 17:47 | 53.31954 | 10.78273 | 14001 ft | 340 kts | 336° |
| 2026-04-22 17:47 | 53.34071 | 10.76536 | 13542 ft | 338 kts | 336° |
| 2026-04-22 17:48 | 53.35467 | 10.75388 | 13251 ft | 336 kts | 336° |
| 2026-04-22 17:48 | 53.38258 | 10.73092 | 12674 ft | 332 kts | 336° |
| 2026-04-22 17:48 | 53.40320 | 10.71392 | 12234 ft | 329 kts | 335° |
| 2026-04-22 17:48 | 53.42369 | 10.69704 | 11795 ft | 327 kts | 335° |
| 2026-04-22 17:49 | 53.44400 | 10.68036 | 11357 ft | 324 kts | 335° |
| 2026-04-22 17:49 | 53.46406 | 10.66384 | 11096 ft | 315 kts | 335° |
| 2026-04-22 17:49 | 53.48334 | 10.64790 | 10967 ft | 302 kts | 335° |
| 2026-04-22 17:49 | 53.50160 | 10.63281 | 10842 ft | 290 kts | 335° |
| 2026-04-22 17:50 | 53.51943 | 10.61811 | 10644 ft | 282 kts | 335° |
| 2026-04-22 17:50 | 53.53685 | 10.60370 | 10387 ft | 277 kts | 335° |
| 2026-04-22 17:50 | 53.55407 | 10.58945 | 10196 ft | 274 kts | 335° |
| 2026-04-22 17:50 | 53.57118 | 10.57532 | 10063 ft | 274 kts | 335° |
| 2026-04-22 17:51 | 53.58829 | 10.56120 | 9931 ft | 274 kts | 335° |
| 2026-04-22 17:51 | 53.60538 | 10.54703 | 9752 ft | 274 kts | 335° |
| 2026-04-22 17:51 | 53.62241 | 10.53287 | 9360 ft | 272 kts | 335° |
| 2026-04-22 17:51 | 53.63932 | 10.51882 | 8951 ft | 270 kts | 335° |
| 2026-04-22 17:52 | 53.65611 | 10.50481 | 8541 ft | 269 kts | 335° |
| 2026-04-22 17:52 | 53.67282 | 10.49085 | 8140 ft | 267 kts | 335° |
| 2026-04-22 17:52 | 53.68945 | 10.47696 | 7730 ft | 266 kts | 334° |
| 2026-04-22 17:52 | 53.70042 | 10.46777 | 7462 ft | 265 kts | 334° |
| 2026-04-22 17:53 | 53.71692 | 10.45396 | 7071 ft | 264 kts | 334° |
| 2026-04-22 17:53 | 53.73337 | 10.44019 | 6651 ft | 263 kts | 335° |
| 2026-04-22 17:53 | 53.74966 | 10.42658 | 6231 ft | 260 kts | 335° |
| 2026-04-22 17:53 | 53.77093 | 10.40882 | 5903 ft | 250 kts | 334° |
| 2026-04-22 17:54 | 53.78131 | 10.40012 | 5815 ft | 242 kts | 334° |
| 2026-04-22 17:54 | 53.79575 | 10.38594 | 5689 ft | 248 kts | 319° |
| 2026-04-22 17:54 | 53.80512 | 10.36114 | 5571 ft | 260 kts | 285° |
| 2026-04-22 17:54 | 53.80407 | 10.33125 | 5436 ft | 256 kts | 249° |
| 2026-04-22 17:55 | 53.79285 | 10.30865 | 5337 ft | 256 kts | 215° |
| 2026-04-22 17:55 | 53.77802 | 10.29192 | 5193 ft | 256 kts | 227° |
| 2026-04-22 17:55 | 53.76700 | 10.26879 | 5098 ft | 250 kts | 237° |
| 2026-04-22 17:55 | 53.75680 | 10.24607 | 4974 ft | 236 kts | 234° |
| 2026-04-22 17:56 | 53.74659 | 10.22490 | 4842 ft | 229 kts | 233° |
| 2026-04-22 17:56 | 53.73685 | 10.20504 | 4727 ft | 210 kts | 234° |
| 2026-04-22 17:56 | 53.72792 | 10.18682 | 4613 ft | 190 kts | 234° |
| 2026-04-22 17:56 | 53.71980 | 10.17025 | 4337 ft | 180 kts | 235° |
| 2026-04-22 17:57 | 53.71169 | 10.15373 | 3732 ft | 184 kts | 233° |
| 2026-04-22 17:57 | 53.70329 | 10.13756 | 3127 ft | 180 kts | 234° |
| 2026-04-22 17:57 | 53.69530 | 10.12179 | 2481 ft | 178 kts | 235° |
| 2026-04-22 17:57 | 53.68762 | 10.10582 | 1918 ft | 172 kts | 237° |
| 2026-04-22 17:58 | 53.68035 | 10.09056 | 1512 ft | 161 kts | 235° |
| 2026-04-22 17:58 | 53.67344 | 10.07638 | 1240 ft | 151 kts | 237° |
| 2026-04-22 17:58 | 53.66681 | 10.06305 | 1003 ft | 148 kts | 238° |
| 2026-04-22 17:58 | 53.66031 | 10.04978 | 816 ft | 147 kts | 238° |
| 2026-04-22 17:59 | 53.65384 | 10.03625 | 651 ft | 147 kts | 235° |
| 2026-04-22 17:59 | 53.64740 | 10.02301 | 438 ft | 145 kts | 234° |
| 2026-04-22 17:59 | 53.64100 | 10.01007 | 242 ft | 143 kts | 237° |
| 2026-04-22 17:59 | 53.63469 | 9.99712 | 54 ft | 142 kts | 234° |
| 2026-04-22 18:00 | 53.63111 | 9.98980 | 46 ft | 95 kts | 231° |
| 2026-04-22 18:00 | 53.62920 | 9.98597 | 43 ft | 0 kts | 217° |
| 2026-04-22 18:00 | 53.62865 | 9.98531 | 41 ft | 17 kts | 213° |
| 2026-04-22 18:00 | 53.62768 | 9.98477 | 44 ft | 13 kts | 192° |
| 2026-04-22 18:01 | 53.62704 | 9.98535 | 43 ft | 11 kts | 104° |
| 2026-04-22 18:01 | 53.62729 | 9.98634 | 43 ft | 9 kts | 52° |
| 2026-04-22 18:01 | 53.62765 | 9.98707 | 41 ft | 8 kts | 50° |
| 2026-04-22 18:01 | 53.62798 | 9.98774 | 43 ft | 7 kts | 50° |
| 2026-04-22 18:02 | 53.62827 | 9.98834 | 43 ft | 6 kts | 50° |
| 2026-04-22 18:02 | 53.62855 | 9.98889 | 43 ft | 7 kts | 50° |
| 2026-04-22 18:02 | 53.62882 | 9.98942 | 43 ft | 5 kts | 49° |
| 2026-04-22 18:02 | 53.62902 | 9.98982 | 43 ft | 5 kts | 49° |
| 2026-04-22 18:03 | 53.62949 | 9.99074 | 44 ft | 15 kts | 50° |
| 2026-04-22 18:03 | 53.63011 | 9.99198 | 44 ft | 13 kts | 50° |
| 2026-04-22 18:03 | 53.63061 | 9.99308 | 44 ft | 11 kts | 55° |
| 2026-04-22 18:03 | 53.63082 | 9.99359 | 45 ft | 0 kts | 55° |
| 2026-04-22 18:04 | 53.63120 | 9.99452 | 46 ft | 18 kts | 55° |
| 2026-04-22 18:05 | 53.63189 | 9.99609 | 44 ft | 2 kts | 53° |
| 2026-04-22 18:05 | 53.63198 | 9.99626 | 44 ft | 4 kts | 51° |
| 2026-04-22 18:05 | 53.63225 | 9.99701 | 45 ft | 7 kts | 77° |
| 2026-04-22 18:05 | 53.63233 | 9.99740 | 42 ft | 0 kts | 67° |
| 2026-04-22 18:06 | 53.63236 | 9.99742 | 43 ft | 1 kts | 38° |
| 2026-04-22 18:06 | 53.63305 | 9.99815 | 45 ft | 19 kts | 49° |
| 2026-04-22 18:06 | 53.63388 | 9.99984 | 45 ft | 18 kts | 50° |
| 2026-04-22 18:06 | 53.63411 | 10.00134 | 46 ft | 10 kts | 151° |
| 2026-04-22 18:07 | 53.63344 | 10.00164 | 45 ft | 10 kts | 169° |
| 2026-04-22 18:07 | 53.63349 | 10.00211 | 46 ft | 8 kts | 62° |
| 2026-04-22 18:07 | 53.63358 | 10.00367 | 46 ft | 10 kts | 89° |
| 2026-04-22 18:07 | 53.63358 | 10.00380 | 46 ft | 0 kts | 89° |